Time;durP1;ratioP1;P1;durP2;ratioP2;P2;SDS_P1;SDS_P2;PMS_P1;PMS_P2;Temp;Humidity;BMP_temperature;BMP_pressure;BME280_temperature;BME280_humidity;BME280_pressure;Samples;Min_cycle;Max_cycle;Signal;HPM_P1;HPM_P2
2021/12/14 00:02:12;;;;;;;3.13;1.75;;;17.90;55.70;;;;;;5047756;28;20111;-64
2021/12/14 00:04:38;;;;;;;2.05;1.85;;;17.90;56.20;;;;;;5049230;28;20039;-62
2021/12/14 00:07:05;;;;;;;2.17;1.73;;;17.90;55.60;;;;;;5049288;28;20036;-65
2021/12/14 00:09:36;;;;;;;2.05;1.83;;;17.90;55.60;;;;;;5045384;28;20440;-64
2021/12/14 00:15:03;;;;;;;2.85;1.90;;;17.90;55.60;;;;;;5046981;28;20033;-64
2021/12/14 00:17:35;;;;;;;1.63;1.42;;;17.90;55.70;;;;;;5046773;28;20501;-63
2021/12/14 00:20:00;;;;;;;2.58;1.70;;;17.90;55.60;;;;;;5039224;28;20045;-62
2021/12/14 00:22:36;;;;;;;1.65;1.40;;;17.90;55.60;;;;;;5046409;28;20025;-63
2021/12/14 00:25:04;;;;;;;1.80;1.70;;;17.90;55.60;;;;;;5047036;28;20090;-65
2021/12/14 00:27:30;;;;;;;1.88;1.60;;;17.90;55.60;;;;;;5046294;28;20032;-64
2021/12/14 00:29:57;;;;;;;2.72;1.70;;;18.00;55.60;;;;;;5047056;28;20021;-64
2021/12/14 00:32:25;;;;;;;2.17;1.60;;;17.90;55.50;;;;;;5045880;28;20318;-64
2021/12/14 00:34:51;;;;;;;1.60;1.50;;;17.90;55.50;;;;;;5044678;28;20025;-64
2021/12/14 00:37:21;;;;;;;1.98;1.70;;;17.90;55.50;;;;;;5045099;28;20079;-65
2021/12/14 00:39:47;;;;;;;1.70;1.60;;;18.00;55.50;;;;;;5046069;28;20488;-63
2021/12/14 00:42:13;;;;;;;1.90;1.80;;;18.00;55.50;;;;;;5046063;28;20109;-62
2021/12/14 00:44:38;;;;;;;1.98;1.77;;;18.00;55.40;;;;;;5045002;28;20119;-62
2021/12/14 00:47:04;;;;;;;1.70;1.60;;;18.00;55.40;;;;;;5043947;28;20033;-63
2021/12/14 00:49:30;;;;;;;2.15;1.73;;;18.00;55.40;;;;;;5045682;28;20029;-64
2021/12/14 00:51:55;;;;;;;1.70;1.60;;;18.00;55.40;;;;;;5045920;28;20608;-62
2021/12/14 00:54:21;;;;;;;1.48;1.27;;;18.00;55.40;;;;;;5045557;28;20091;-63
2021/12/14 00:56:47;;;;;;;1.83;1.67;;;18.00;55.40;;;;;;5046064;28;20025;-63
2021/12/14 00:59:13;;;;;;;1.90;1.80;;;18.00;55.50;;;;;;5045558;28;20112;-63
2021/12/14 01:01:46;;;;;;;3.80;1.70;;;18.00;55.50;;;;;;5045315;28;20047;-64
2021/12/14 01:04:17;;;;;;;1.60;1.50;;;18.00;55.50;;;;;;5045262;28;20028;-62
2021/12/14 01:06:45;;;;;;;1.35;1.25;;;18.00;55.50;;;;;;5045998;28;20064;-61
2021/12/14 01:09:12;;;;;;;1.42;1.10;;;18.00;55.50;;;;;;5045484;28;20571;-63
2021/12/14 01:11:43;;;;;;;1.95;1.35;;;18.00;55.40;;;;;;5045594;28;20036;-62
2021/12/14 01:14:18;;;;;;;1.70;1.50;;;18.00;55.40;;;;;;5045469;28;20597;-62
2021/12/14 01:16:53;;;;;;;2.08;1.65;;;18.00;55.40;;;;;;5045236;28;20408;-62
2021/12/14 01:19:25;;;;;;;;;;;18.00;55.40;;;;;;5045710;28;20037;-62
2021/12/14 01:27:19;;;;;;;1.70;1.60;;;18.00;55.40;;;;;;5040081;28;20044;-63
2021/12/14 01:29:46;;;;;;;1.83;1.67;;;18.00;55.30;;;;;;5045550;28;20047;-62
2021/12/14 01:32:12;;;;;;;2.15;1.30;;;18.00;55.40;;;;;;5045710;28;20025;-63
2021/12/14 01:34:38;;;;;;;1.38;1.27;;;18.00;55.40;;;;;;5046378;28;20029;-63
2021/12/14 01:37:07;;;;;;;1.65;1.50;;;18.00;56.00;;;;;;5045403;28;20738;-62
2021/12/14 01:39:48;;;;;;;2.90;1.80;;;18.00;55.40;;;;;;5043879;28;20453;-62
2021/12/14 01:42:23;;;;;;;2.03;1.70;;;18.00;55.30;;;;;;5044962;28;20068;-61
2021/12/14 01:45:10;;;;;;;2.10;1.90;;;18.00;55.30;;;;;;5040048;28;20044;-63
2021/12/14 01:47:45;;;;;;;3.00;1.48;;;18.00;55.30;;;;;;5044389;28;20208;-63
2021/12/14 01:50:17;;;;;;;1.50;1.30;;;18.00;55.30;;;;;;5045043;28;20112;-64
2021/12/14 01:52:42;;;;;;;2.17;1.65;;;18.00;55.30;;;;;;5036812;28;20716;-62
2021/12/14 01:55:18;;;;;;;2.08;1.65;;;18.00;55.30;;;;;;5045573;28;20036;-61
2021/12/14 01:57:44;;;;;;;1.33;1.23;;;18.00;55.30;;;;;;5044902;28;20577;-62
2021/12/14 02:00:13;;;;;;;1.50;1.38;;;18.00;55.30;;;;;;5044379;28;20037;-62
2021/12/14 02:02:42;;;;;;;1.50;1.40;;;18.00;55.30;;;;;;5043406;28;20029;-63
2021/12/14 02:05:26;;;;;;;1.73;1.33;;;18.00;55.30;;;;;;5044159;28;20021;-62
2021/12/14 02:07:52;;;;;;;1.80;1.67;;;18.00;55.30;;;;;;5044349;28;20037;-62
2021/12/14 02:10:22;;;;;;;2.47;1.50;;;18.00;55.30;;;;;;5044081;28;20128;-62
2021/12/14 02:12:47;;;;;;;2.20;1.30;;;18.00;55.20;;;;;;5044491;28;20420;-62
2021/12/14 02:15:35;;;;;;;1.20;1.10;;;18.00;55.20;;;;;;5044624;28;20025;-62
2021/12/14 02:18:01;;;;;;;2.03;1.30;;;18.00;55.20;;;;;;5040413;28;20025;-62
2021/12/14 02:20:29;;;;;;;1.45;1.35;;;18.00;55.10;;;;;;5043404;28;20030;-62
2021/12/14 02:22:55;;;;;;;1.48;1.38;;;18.00;55.10;;;;;;5043220;28;20040;-63
2021/12/14 02:25:20;;;;;;;1.63;1.40;;;18.00;55.10;;;;;;5044286;28;20025;-62
2021/12/14 02:27:47;;;;;;;1.60;1.23;;;18.00;55.10;;;;;;5043959;28;20048;-62
2021/12/14 02:30:15;;;;;;;1.05;0.95;;;18.00;55.10;;;;;;5044433;28;20540;-63
2021/12/14 02:32:41;;;;;;;2.45;1.10;;;18.00;55.20;;;;;;5042614;28;20029;-64
2021/12/14 02:35:09;;;;;;;1.42;1.33;;;18.00;55.20;;;;;;5044903;28;20060;-64
2021/12/14 02:37:43;;;;;;;1.98;1.35;;;18.00;55.20;;;;;;5044888;28;20025;-63
2021/12/14 02:40:20;;;;;;;1.92;1.10;;;17.90;55.20;;;;;;5043713;28;20029;-62
2021/12/14 02:42:50;;;;;;;1.40;1.30;;;17.90;55.20;;;;;;5044503;28;20067;-63
2021/12/14 02:45:16;;;;;;;1.25;1.15;;;17.90;55.20;;;;;;5045027;28;20049;-63
2021/12/14 02:47:41;;;;;;;0.85;0.85;;;17.90;55.30;;;;;;5045577;28;20083;-63
2021/12/14 02:50:07;;;;;;;1.20;1.10;;;17.90;55.30;;;;;;5046385;28;20017;-62
2021/12/14 02:52:36;;;;;;;1.08;0.98;;;17.90;55.30;;;;;;5047567;28;20032;-63
2021/12/14 02:55:10;;;;;;;1.40;1.13;;;17.90;55.30;;;;;;5050786;28;20037;-63
2021/12/14 02:57:36;;;;;;;1.10;1.00;;;17.90;55.40;;;;;;5039457;28;20182;-63
2021/12/14 03:00:07;;;;;;;1.20;1.10;;;17.90;55.30;;;;;;5044602;28;20508;-63
2021/12/14 03:02:33;;;;;;;1.30;1.10;;;17.90;55.40;;;;;;5044279;28;20094;-62
2021/12/14 03:05:06;;;;;;;1.10;1.00;;;17.90;55.30;;;;;;5045054;28;20083;-63
2021/12/14 03:07:33;;;;;;;1.08;0.88;;;17.80;55.30;;;;;;5042843;28;20029;-63
2021/12/14 03:10:21;;;;;;;1.23;1.13;;;17.90;55.40;;;;;;5043758;28;20025;-62
2021/12/14 03:12:51;;;;;;;1.20;1.05;;;17.80;55.30;;;;;;5042249;28;20025;-63
2021/12/14 03:15:35;;;;;;;1.25;1.13;;;17.90;55.40;;;;;;5042240;28;20044;-62
2021/12/14 03:18:07;;;;;;;1.30;1.20;;;17.80;55.20;;;;;;5043594;28;20037;-62
2021/12/14 03:20:40;;;;;;;1.30;1.02;;;17.90;55.30;;;;;;5043564;28;20036;-64
2021/12/14 03:23:07;;;;;;;1.83;1.20;;;17.90;55.30;;;;;;5042416;28;20087;-62
2021/12/14 03:25:34;;;;;;;1.27;1.10;;;17.90;55.30;;;;;;5043412;28;20032;-63
2021/12/14 03:28:00;;;;;;;1.25;0.85;;;17.80;55.20;;;;;;5042240;28;20033;-62
2021/12/14 03:30:26;;;;;;;1.10;1.00;;;17.90;55.30;;;;;;5043408;28;20404;-64
2021/12/14 03:32:52;;;;;;;1.00;0.90;;;17.90;55.90;;;;;;5043409;28;20025;-63
2021/12/14 03:35:19;;;;;;;0.80;0.80;;;17.90;55.20;;;;;;5043123;28;20061;-63
2021/12/14 03:37:45;;;;;;;2.25;1.23;;;17.80;55.80;;;;;;5043536;28;20112;-63
2021/12/14 03:40:10;;;;;;;1.85;1.00;;;17.80;55.30;;;;;;5058469;28;20017;-62
2021/12/14 03:42:38;;;;;;;1.55;1.20;;;17.80;55.20;;;;;;5043512;28;20410;-62
2021/12/14 03:45:12;;;;;;;0.80;0.80;;;17.80;55.20;;;;;;5043162;28;20108;-62
2021/12/14 03:47:47;;;;;;;1.02;0.93;;;17.80;55.20;;;;;;5043421;28;20536;-64
2021/12/14 03:50:21;;;;;;;1.23;1.13;;;17.80;55.20;;;;;;5043336;28;20025;-62
2021/12/14 03:52:47;;;;;;;1.27;1.00;;;17.80;55.20;;;;;;5036083;28;20025;-62
2021/12/14 03:55:36;;;;;;;1.13;1.02;;;17.80;55.20;;;;;;5043077;28;20118;-63
2021/12/14 03:58:07;;;;;;;1.30;1.20;;;17.80;55.30;;;;;;5039481;28;20508;-62
2021/12/14 04:00:38;;;;;;;1.67;1.00;;;17.80;55.30;;;;;;5043094;28;20029;-62
2021/12/14 04:03:05;;;;;;;1.30;0.77;;;17.80;55.40;;;;;;5040655;28;20113;-62
2021/12/14 04:05:31;;;;;;;0.80;0.80;;;17.80;55.40;;;;;;5042512;28;20029;-63
2021/12/14 04:07:56;;;;;;;2.78;0.88;;;17.80;55.40;;;;;;5043331;28;20105;-62
2021/12/14 04:10:26;;;;;;;0.90;0.70;;;17.80;55.40;;;;;;5042580;28;20550;-61
2021/12/14 04:12:51;;;;;;;1.15;0.90;;;17.80;55.40;;;;;;5043018;28;20488;-62
2021/12/14 04:15:17;;;;;;;1.67;0.90;;;17.80;55.40;;;;;;5041634;28;20036;-62
2021/12/14 04:17:43;;;;;;;2.30;1.00;;;17.80;55.40;;;;;;5042380;28;20028;-62
2021/12/14 04:20:17;;;;;;;2.70;0.90;;;17.80;55.40;;;;;;5042626;28;20024;-63
2021/12/14 04:22:48;;;;;;;0.97;0.80;;;17.80;55.30;;;;;;5043969;28;20529;-63
2021/12/14 04:25:14;;;;;;;2.25;0.85;;;17.80;55.30;;;;;;5043149;28;20765;-64
2021/12/14 04:27:39;;;;;;;0.77;0.70;;;17.70;55.20;;;;;;5045047;28;20098;-62
2021/12/14 04:30:07;;;;;;;0.85;0.73;;;17.80;55.30;;;;;;5046515;28;20082;-62
2021/12/14 04:32:33;;;;;;;0.98;0.75;;;17.80;55.40;;;;;;5047098;28;20036;-62
2021/12/14 04:34:58;;;;;;;0.90;0.70;;;17.70;55.30;;;;;;5047055;28;20022;-63
2021/12/14 04:37:24;;;;;;;0.95;0.70;;;17.80;55.30;;;;;;5046189;28;20017;-62
2021/12/14 04:40:00;;;;;;;0.95;0.90;;;17.80;55.30;;;;;;5046219;28;20459;-62
2021/12/14 04:53:32;;;;;;;0.63;0.55;;;17.80;55.10;;;;;;5044309;28;20102;-62
2021/12/14 04:55:58;;;;;;;0.80;0.60;;;17.80;55.20;;;;;;5045962;28;20033;-64
2021/12/14 04:58:32;;;;;;;0.93;0.60;;;17.80;55.10;;;;;;5045870;28;20555;-62
2021/12/14 05:00:58;;;;;;;0.60;0.60;;;17.80;55.10;;;;;;5044283;28;20288;-62
2021/12/14 05:03:27;;;;;;;0.95;0.77;;;17.80;55.10;;;;;;5045577;28;20044;-64
2021/12/14 05:06:00;;;;;;;0.68;0.68;;;17.80;55.00;;;;;;5045975;28;20258;-62
2021/12/14 05:11:05;;;;;;;0.55;0.55;;;17.90;55.00;;;;;;5044553;28;20382;-62
2021/12/14 05:13:33;;;;;;;0.80;0.63;;;17.90;55.00;;;;;;5045475;28;20025;-62
2021/12/14 05:15:59;;;;;;;1.13;0.70;;;17.90;55.00;;;;;;5045438;28;20029;-62
2021/12/14 05:18:24;;;;;;;1.40;0.93;;;17.80;55.00;;;;;;5045390;28;20087;-62
2021/12/14 05:20:50;;;;;;;0.98;0.60;;;17.90;55.00;;;;;;5045506;28;20082;-62
2021/12/14 05:23:24;;;;;;;1.63;0.52;;;17.80;55.00;;;;;;5052014;22;20505;-64
2021/12/14 05:25:49;;;;;;;0.70;0.40;;;17.80;55.00;;;;;;5042192;28;20025;-61
2021/12/14 05:28:16;;;;;;;1.00;0.88;;;17.90;55.00;;;;;;5006009;28;20565;-61
2021/12/14 05:30:44;;;;;;;1.73;0.63;;;17.90;55.00;;;;;;5026205;28;20040;-60
2021/12/14 05:33:15;;;;;;;1.10;0.70;;;17.90;54.90;;;;;;5034258;28;20092;-59
2021/12/14 05:35:40;;;;;;;0.60;0.60;;;17.90;54.90;;;;;;5025110;28;20037;-61
2021/12/14 05:38:15;;;;;;;0.90;0.63;;;17.90;54.90;;;;;;5007559;28;20026;-58
2021/12/14 05:43:21;;;;;;;0.60;0.60;;;17.90;54.90;;;;;;5024496;28;20044;-61
2021/12/14 05:45:51;;;;;;;0.60;0.60;;;17.90;54.90;;;;;;5007622;28;20025;-63
2021/12/14 05:48:19;;;;;;;0.50;0.50;;;17.90;54.90;;;;;;5016188;28;20038;-60
2021/12/14 05:50:49;;;;;;;0.70;0.70;;;17.90;54.90;;;;;;5006767;28;20025;-60
2021/12/14 05:53:39;;;;;;;0.47;0.47;;;17.90;54.80;;;;;;5013783;28;20029;-64
2021/12/14 05:56:16;;;;;;;1.30;0.73;;;17.90;54.80;;;;;;5019560;28;20501;-68
2021/12/14 05:58:42;;;;;;;1.25;0.90;;;17.90;54.70;;;;;;5024133;28;20072;-60
2021/12/14 06:01:10;;;;;;;2.05;0.65;;;17.90;54.70;;;;;;5006498;28;20071;-63
2021/12/14 06:03:42;;;;;;;0.65;0.65;;;17.90;54.80;;;;;;5024302;28;20025;-63
2021/12/14 06:06:20;;;;;;;0.50;0.50;;;17.90;54.80;;;;;;5006329;28;20440;-59
2021/12/14 06:08:45;;;;;;;0.57;0.57;;;17.90;54.70;;;;;;5024318;28;20420;-63
2021/12/14 06:11:19;;;;;;;0.50;0.50;;;18.00;54.60;;;;;;5024249;28;20029;-63
2021/12/14 06:13:45;;;;;;;0.73;0.73;;;18.00;54.60;;;;;;5024679;28;20044;-63
2021/12/14 06:16:25;;;;;;;1.13;0.70;;;17.90;54.50;;;;;;5024348;28;20033;-64
2021/12/14 06:18:51;;;;;;;0.80;0.80;;;18.00;54.60;;;;;;5023657;28;20123;-63
2021/12/14 06:21:21;;;;;;;0.85;0.60;;;18.00;54.80;;;;;;5023822;28;20057;-64
2021/12/14 06:23:46;;;;;;;0.65;0.60;;;18.00;55.00;;;;;;5006107;28;20033;-62
2021/12/14 06:26:13;;;;;;;0.73;0.63;;;17.90;54.90;;;;;;5005217;28;20410;-64
2021/12/14 06:28:38;;;;;;;3.55;0.60;;;17.90;54.90;;;;;;5020404;28;20627;-64
2021/12/14 06:31:04;;;;;;;4.00;0.68;;;17.90;55.10;;;;;;5023221;28;20116;-63
2021/12/14 06:33:30;;;;;;;2.08;0.80;;;17.90;55.10;;;;;;5024433;28;20034;-64
2021/12/14 06:35:59;;;;;;;3.17;1.00;;;17.90;55.20;;;;;;5006591;28;20029;-60
2021/12/14 06:38:28;;;;;;;0.95;0.93;;;17.90;55.40;;;;;;5023691;28;20033;-59
2021/12/14 06:41:06;;;;;;;2.53;1.15;;;17.80;55.40;;;;;;5006168;28;20025;-62
2021/12/14 06:43:33;;;;;;;1.95;1.10;;;17.80;55.40;;;;;;5020591;28;20034;-60
2021/12/14 06:46:05;;;;;;;3.22;1.00;;;17.90;55.40;;;;;;5023393;28;20022;-64
2021/12/14 06:48:51;;;;;;;1.08;0.98;;;17.80;55.30;;;;;;5023336;28;20171;-64
2021/12/14 06:51:29;;;;;;;1.85;1.00;;;17.80;55.30;;;;;;5023154;28;20056;-62
2021/12/14 06:53:58;;;;;;;2.58;1.10;;;17.90;55.40;;;;;;5023080;28;20040;-62
2021/12/14 06:56:26;;;;;;;1.17;0.75;;;17.80;55.20;;;;;;5030899;28;20651;-63
2021/12/14 06:58:56;;;;;;;2.03;1.15;;;17.80;55.20;;;;;;5023627;28;20041;-62
2021/12/14 07:01:24;;;;;;;1.30;1.20;;;17.90;55.30;;;;;;5006231;28;20042;-63
2021/12/14 07:03:52;;;;;;;2.85;1.17;;;17.90;55.30;;;;;;5024297;28;20029;-64
2021/12/14 07:06:25;;;;;;;1.48;1.20;;;17.90;55.20;;;;;;5025167;28;20115;-63
2021/12/14 07:08:51;;;;;;;1.35;1.10;;;17.90;55.10;;;;;;5007216;28;20453;-64
2021/12/14 07:11:21;;;;;;;2.78;1.17;;;17.90;55.00;;;;;;5023560;28;20117;-64
2021/12/14 07:13:46;;;;;;;1.60;1.17;;;18.00;54.80;;;;;;5023971;28;20026;-62
2021/12/14 07:16:21;;;;;;;5.75;1.10;;;18.00;54.80;;;;;;5005807;28;20036;-64
2021/12/14 07:18:49;;;;;;;2.75;1.50;;;18.00;54.70;;;;;;5005969;28;20030;-63
2021/12/14 07:21:33;;;;;;;2.35;1.20;;;18.00;54.60;;;;;;5023193;28;20030;-63
2021/12/14 07:23:58;;;;;;;3.28;1.55;;;18.10;54.50;;;;;;4982551;28;20038;-63
2021/12/14 07:26:24;;;;;;;3.70;1.30;;;18.00;54.30;;;;;;5023135;28;20029;-63
2021/12/14 07:28:49;;;;;;;4.07;2.13;;;18.00;54.20;;;;;;5023027;28;20045;-65
2021/12/14 07:31:18;;;;;;;4.63;1.88;;;18.00;54.00;;;;;;5022836;28;20521;-63
2021/12/14 07:33:49;;;;;;;6.60;2.65;;;18.00;53.90;;;;;;5023567;28;20120;-64
2021/12/14 07:36:21;;;;;;;5.57;2.90;;;18.00;53.90;;;;;;5019031;28;20037;-64
2021/12/14 07:38:55;;;;;;;6.57;2.85;;;18.00;53.90;;;;;;5006301;28;20052;-63
2021/12/14 07:41:28;;;;;;;4.72;2.67;;;18.00;54.30;;;;;;4995912;28;20497;-63
2021/12/14 07:44:05;;;;;;;2.92;2.20;;;17.90;54.30;;;;;;5005068;28;20477;-63
2021/12/14 07:46:55;;;;;;;4.10;2.53;;;17.90;54.10;;;;;;5022693;28;20026;-62
2021/12/14 07:49:32;;;;;;;10.50;3.53;;;17.90;54.20;;;;;;4997029;28;20048;-62
2021/12/14 07:52:09;;;;;;;14.23;8.00;;;17.90;54.10;;;;;;5005977;28;20098;-63
2021/12/14 07:54:36;;;;;;;19.83;9.05;;;17.90;55.70;;;;;;5022997;28;20480;-62
2021/12/14 07:57:11;;;;;;;18.98;8.75;;;17.90;56.20;;;;;;5023635;28;20033;-62
2021/12/14 07:59:38;;;;;;;23.85;8.10;;;17.90;56.50;;;;;;4989551;28;20240;-62
2021/12/14 08:02:11;;;;;;;26.38;8.10;;;17.80;56.60;;;;;;5023966;28;20485;-64
2021/12/14 08:04:37;;;;;;;16.38;6.70;;;17.80;57.00;;;;;;5009393;28;20119;-60
2021/12/14 08:07:03;;;;;;;20.33;7.70;;;17.80;57.10;;;;;;5008793;28;20461;-59
2021/12/14 08:09:48;;;;;;;13.98;6.40;;;17.80;57.10;;;;;;5008995;28;20030;-62
2021/12/14 08:12:27;;;;;;;12.43;6.47;;;17.80;57.00;;;;;;5010076;28;20037;-60
2021/12/14 08:15:00;;;;;;;15.98;7.35;;;17.80;57.00;;;;;;5008415;28;20030;-61
2021/12/14 08:17:26;;;;;;;14.18;6.35;;;17.80;57.00;;;;;;5025464;28;20422;-65
2021/12/14 08:19:51;;;;;;;13.48;5.95;;;17.80;57.10;;;;;;5008390;28;20065;-63
2021/12/14 08:22:28;;;;;;;14.10;6.20;;;17.80;57.10;;;;;;5025869;28;20091;-62
2021/12/14 08:24:53;;;;;;;16.23;6.03;;;17.80;57.10;;;;;;5008309;28;20029;-58
2021/12/14 08:27:24;;;;;;;12.95;5.60;;;17.80;57.10;;;;;;5008182;28;20036;-63
2021/12/14 08:29:55;;;;;;;14.23;5.60;;;17.80;57.00;;;;;;5025328;28;20539;-62
2021/12/14 08:32:24;;;;;;;13.68;5.55;;;17.80;57.00;;;;;;5026209;28;20175;-61
2021/12/14 08:34:50;;;;;;;13.75;5.35;;;17.80;56.90;;;;;;5018172;28;20030;-62
2021/12/14 08:37:19;;;;;;;9.90;5.57;;;17.80;56.90;;;;;;5025819;28;20660;-59
2021/12/14 08:39:50;;;;;;;10.38;5.18;;;17.80;56.90;;;;;;5025391;28;20037;-60
2021/12/14 08:42:20;;;;;;;8.13;5.13;;;17.80;56.90;;;;;;5026096;28;20120;-60
2021/12/14 08:44:54;;;;;;;8.50;4.60;;;17.90;56.90;;;;;;5008713;28;20081;-60
2021/12/14 08:47:34;;;;;;;11.77;4.78;;;17.90;56.80;;;;;;4991904;28;20288;-66
2021/12/14 08:50:04;;;;;;;10.63;4.03;;;17.90;56.80;;;;;;5018906;28;20029;-58
2021/12/14 08:52:30;;;;;;;12.35;5.15;;;17.90;56.70;;;;;;5025459;28;20203;-63
2021/12/14 08:54:55;;;;;;;10.25;5.07;;;17.90;56.70;;;;;;5025691;28;20044;-60
2021/12/14 08:57:23;;;;;;;10.48;5.22;;;17.90;56.70;;;;;;5025169;28;20056;-60
2021/12/14 08:59:55;;;;;;;12.50;4.72;;;17.90;56.70;;;;;;5025061;28;20116;-62
2021/12/14 09:02:20;;;;;;;10.95;3.90;;;17.90;56.70;;;;;;5024462;28;20052;-61
2021/12/14 09:04:56;;;;;;;12.05;5.38;;;17.90;56.70;;;;;;5024886;28;20060;-62
2021/12/14 09:07:24;;;;;;;10.88;5.18;;;17.90;56.70;;;;;;5007695;28;20542;-59
2021/12/14 09:09:49;;;;;;;11.90;4.93;;;17.90;56.60;;;;;;5024904;28;20036;-59
2021/12/14 09:12:33;;;;;;;10.45;4.60;;;17.90;56.60;;;;;;5024350;28;20018;-59
2021/12/14 09:15:20;;;;;;;12.82;4.90;;;17.90;56.60;;;;;;4997914;28;21415;-61
2021/12/14 09:17:46;;;;;;;10.93;4.72;;;17.90;56.60;;;;;;5007100;28;20033;-63
2021/12/14 09:20:27;;;;;;;7.05;4.15;;;17.90;56.60;;;;;;5024536;28;20044;-61
2021/12/14 09:22:56;;;;;;;9.90;4.18;;;17.90;56.60;;;;;;5021667;28;20037;-59
2021/12/14 09:25:24;;;;;;;10.20;4.40;;;17.90;56.60;;;;;;5024976;28;20346;-62
2021/12/14 09:27:49;;;;;;;10.55;3.88;;;17.90;56.70;;;;;;5024965;28;20112;-64
2021/12/14 09:30:16;;;;;;;9.98;5.05;;;17.90;56.60;;;;;;5007115;28;20017;-63
2021/12/14 09:32:42;;;;;;;9.85;4.00;;;17.90;56.60;;;;;;5006808;28;20026;-63
2021/12/14 09:35:14;;;;;;;11.27;4.25;;;17.90;56.60;;;;;;5025151;28;20417;-61
2021/12/14 09:37:39;;;;;;;6.38;3.50;;;17.90;56.60;;;;;;5015016;28;20052;-61
2021/12/14 09:40:09;;;;;;;8.63;4.15;;;17.90;56.80;;;;;;5006190;28;20577;-60
2021/12/14 09:42:35;;;;;;;9.05;3.88;;;17.90;58.20;;;;;;5024140;28;20025;-56
2021/12/14 09:45:14;;;;;;;7.65;3.80;;;17.90;57.90;;;;;;4991522;28;20520;-61
2021/12/14 09:47:40;;;;;;;10.88;3.83;;;17.90;58.10;;;;;;5009175;28;20028;-58
2021/12/14 09:50:11;;;;;;;11.13;3.60;;;17.90;58.30;;;;;;5006818;28;20026;-61
2021/12/14 09:52:38;;;;;;;4.60;3.28;;;17.90;58.30;;;;;;5006697;28;20539;-60
2021/12/14 09:55:16;;;;;;;5.57;3.17;;;17.90;58.40;;;;;;5024799;28;20555;-59
2021/12/14 09:57:44;;;;;;;7.20;2.92;;;17.90;58.30;;;;;;5024990;28;20816;-60
2021/12/14 10:00:16;;;;;;;7.00;3.25;;;17.90;58.40;;;;;;5023871;28;20030;-60
2021/12/14 10:02:42;;;;;;;6.80;2.80;;;17.90;58.40;;;;;;5006336;28;20039;-60
2021/12/14 10:05:12;;;;;;;6.30;2.85;;;17.90;58.40;;;;;;5006279;28;20242;-61
2021/12/14 10:07:38;;;;;;;5.30;2.85;;;17.90;58.30;;;;;;4990635;28;20040;-62
2021/12/14 10:10:04;;;;;;;8.73;3.35;;;17.90;58.30;;;;;;5007233;28;20072;-61
2021/12/14 10:15:10;;;;;;;3.30;2.53;;;17.90;58.30;;;;;;5023353;28;20112;-61
2021/12/14 10:17:36;;;;;;;7.95;2.85;;;17.80;58.40;;;;;;5021924;28;20116;-63
2021/12/14 10:20:03;;;;;;;4.22;2.38;;;17.80;58.30;;;;;;5024241;28;20124;-63
2021/12/14 10:22:31;;;;;;;4.03;2.38;;;17.80;58.40;;;;;;5006013;28;20029;-61
2021/12/14 10:24:58;;;;;;;7.90;3.03;;;17.80;58.30;;;;;;5023217;28;20030;-61
2021/12/14 10:27:25;;;;;;;6.20;2.33;;;17.80;58.40;;;;;;5006067;28;20056;-58
2021/12/14 10:29:51;;;;;;;3.45;2.17;;;17.80;58.20;;;;;;5006156;28;20435;-58
2021/12/14 10:32:19;;;;;;;5.63;2.78;;;17.80;58.20;;;;;;5023481;28;20112;-58
2021/12/14 10:34:48;;;;;;;4.15;2.50;;;17.80;58.20;;;;;;5023359;28;20032;-67
2021/12/14 10:37:36;;;;;;;4.78;2.50;;;17.80;58.20;;;;;;5022634;28;20021;-62
2021/12/14 10:43:12;;;;;;;2.97;2.15;;;17.80;58.10;;;;;;5022991;28;20079;-58
2021/12/14 10:45:38;;;;;;;3.92;2.35;;;17.80;58.10;;;;;;5009548;28;20041;-60
2021/12/14 10:48:04;;;;;;;4.35;1.95;;;17.90;58.10;;;;;;5022970;28;20020;-60
2021/12/14 10:50:31;;;;;;;4.22;2.00;;;17.90;58.10;;;;;;5005880;28;20014;-58
2021/12/14 10:52:58;;;;;;;4.40;1.75;;;17.90;58.10;;;;;;5005953;28;20037;-62
2021/12/14 10:55:26;;;;;;;4.90;2.10;;;17.90;58.10;;;;;;5005336;28;20026;-62
2021/12/14 10:57:52;;;;;;;3.15;2.17;;;17.90;58.00;;;;;;5023259;28;20429;-59
2021/12/14 11:00:29;;;;;;;3.33;2.38;;;17.90;58.00;;;;;;5023075;28;20065;-62
2021/12/14 11:03:01;;;;;;;5.07;2.17;;;17.90;57.90;;;;;;5006401;28;20125;-60
2021/12/14 11:05:28;;;;;;;3.92;2.03;;;17.90;57.90;;;;;;5023091;28;20029;-59
2021/12/14 11:07:53;;;;;;;3.05;1.88;;;17.90;57.80;;;;;;5004762;28;20025;-61
2021/12/14 11:10:33;;;;;;;2.65;1.70;;;17.90;57.80;;;;;;5005260;28;20033;-57
2021/12/14 11:13:06;;;;;;;2.90;1.85;;;17.90;57.90;;;;;;5022922;28;20025;-59
2021/12/14 11:15:37;;;;;;;4.05;2.20;;;17.90;57.80;;;;;;4979970;28;20412;-62
2021/12/14 11:18:10;;;;;;;2.60;1.80;;;17.90;57.70;;;;;;5022984;28;20401;-61
2021/12/14 11:20:46;;;;;;;2.05;1.60;;;17.90;57.70;;;;;;5005876;28;20347;-61
2021/12/14 11:23:19;;;;;;;2.92;1.70;;;17.90;57.70;;;;;;5024081;28;20414;-63
2021/12/14 11:25:54;;;;;;;3.10;1.80;;;17.90;57.70;;;;;;5066718;22;20093;-61
2021/12/14 11:28:22;;;;;;;2.88;1.75;;;17.90;57.60;;;;;;5057767;28;20043;-64
2021/12/14 11:30:56;;;;;;;4.25;1.30;;;17.90;57.70;;;;;;5062505;28;20112;-66
2021/12/14 11:33:29;;;;;;;2.77;1.70;;;18.00;57.70;;;;;;5062955;28;20638;-62
2021/12/14 11:36:05;;;;;;;2.95;1.58;;;17.90;57.60;;;;;;5047263;28;20077;-63
2021/12/14 11:38:43;;;;;;;4.78;1.55;;;18.00;57.70;;;;;;5049456;28;20516;-62
2021/12/14 11:41:27;;;;;;;3.80;2.20;;;18.00;57.70;;;;;;5041043;28;20033;-63
2021/12/14 11:43:56;;;;;;;2.17;1.63;;;17.90;57.70;;;;;;5049666;28;20025;-65
2021/12/14 11:46:22;;;;;;;2.30;1.70;;;17.90;57.70;;;;;;5050030;28;20435;-64
2021/12/14 11:48:48;;;;;;;2.45;1.60;;;18.00;57.80;;;;;;5049592;28;20025;-64
2021/12/14 11:51:13;;;;;;;2.88;1.40;;;18.00;57.80;;;;;;5034097;28;20136;-64
2021/12/14 11:53:46;;;;;;;3.17;1.52;;;18.00;57.90;;;;;;5040899;28;20064;-65
2021/12/14 11:56:14;;;;;;;3.47;1.75;;;18.00;57.90;;;;;;5054323;28;20061;-64
2021/12/14 11:58:50;;;;;;;2.97;1.70;;;17.90;57.90;;;;;;5034739;28;20017;-64
2021/12/14 12:01:26;;;;;;;7.15;2.33;;;18.00;58.10;;;;;;5051237;28;20493;-64
2021/12/14 12:04:11;;;;;;;8.60;2.88;;;18.00;58.20;;;;;;5049625;28;20048;-65
2021/12/14 12:09:36;;;;;;;11.38;3.20;;;18.00;58.50;;;;;;5048955;28;20040;-64
2021/12/14 12:12:04;;;;;;;8.40;3.22;;;18.00;58.70;;;;;;5049480;28;20060;-65
2021/12/14 12:14:42;;;;;;;7.45;3.45;;;18.00;59.00;;;;;;5049640;28;20052;-64
2021/12/14 12:17:22;;;;;;;9.68;2.90;;;18.00;59.20;;;;;;5038873;28;20032;-64
2021/12/14 12:20:14;;;;;;;7.35;2.45;;;18.00;59.50;;;;;;5048950;28;20021;-66
2021/12/14 12:22:40;;;;;;;5.28;3.00;;;18.00;59.70;;;;;;5047846;28;20084;-68
2021/12/14 12:25:18;;;;;;;6.97;2.80;;;18.00;59.90;;;;;;5049396;28;20112;-64
2021/12/14 12:27:47;;;;;;;5.47;2.65;;;18.00;60.10;;;;;;5048975;28;20025;-66
2021/12/14 12:30:20;;;;;;;5.35;2.33;;;18.00;60.20;;;;;;5049271;28;20047;-65
2021/12/14 12:32:46;;;;;;;4.78;2.40;;;18.00;60.30;;;;;;5048973;28;20033;-65
2021/12/14 12:35:24;;;;;;;5.38;2.78;;;18.10;60.40;;;;;;5049223;28;20028;-65
2021/12/14 12:37:49;;;;;;;7.60;2.67;;;18.10;60.30;;;;;;5049385;28;20045;-64
2021/12/14 12:40:17;;;;;;;5.82;2.25;;;18.00;60.20;;;;;;5047611;28;20721;-64
2021/12/14 12:42:43;;;;;;;5.03;2.72;;;18.00;60.10;;;;;;5043734;28;20033;-65
2021/12/14 12:45:34;;;;;;;8.13;2.45;;;18.00;60.00;;;;;;5048856;28;20786;-66
2021/12/14 12:48:01;;;;;;;5.88;2.60;;;18.10;59.90;;;;;;5045723;28;20032;-64
2021/12/14 12:50:27;;;;;;;3.00;1.98;;;18.10;59.90;;;;;;5044845;28;20029;-65
2021/12/14 12:52:52;;;;;;;8.38;2.40;;;18.10;59.60;;;;;;5046119;28;20032;-64
2021/12/14 12:55:30;;;;;;;6.25;2.30;;;18.10;59.70;;;;;;5045321;28;20047;-65
2021/12/14 12:58:11;;;;;;;7.70;2.42;;;18.10;59.50;;;;;;5045804;28;20229;-63
2021/12/14 13:00:48;;;;;;;3.97;2.30;;;18.10;59.40;;;;;;5045540;28;20075;-64
2021/12/14 13:03:16;;;;;;;7.35;2.03;;;18.10;59.40;;;;;;5045301;28;20029;-64
2021/12/14 13:05:42;;;;;;;6.43;2.17;;;18.10;59.30;;;;;;5045225;28;20021;-65
2021/12/14 13:08:10;;;;;;;4.80;2.00;;;18.20;59.10;;;;;;5045478;28;20029;-66
2021/12/14 13:10:40;;;;;;;3.28;2.05;;;18.10;59.10;;;;;;5045023;28;20036;-64
2021/12/14 13:13:12;;;;;;;5.03;1.92;;;18.10;58.90;;;;;;5042412;28;20055;-65
2021/12/14 13:15:44;;;;;;;4.20;2.28;;;18.10;58.90;;;;;;5045197;28;20024;-65
2021/12/14 13:18:17;;;;;;;3.78;1.98;;;18.10;58.80;;;;;;5043463;28;20102;-65
2021/12/14 13:20:44;;;;;;;4.53;1.80;;;18.10;58.70;;;;;;5045636;28;20746;-64
2021/12/14 13:23:09;;;;;;;4.90;2.28;;;18.10;58.70;;;;;;5045612;28;20025;-65
2021/12/14 13:25:36;;;;;;;4.07;2.35;;;18.10;58.70;;;;;;5045052;28;20037;-64
2021/12/14 13:28:02;;;;;;;6.05;2.15;;;18.10;58.50;;;;;;5045449;28;20028;-66
2021/12/14 13:30:28;;;;;;;2.70;1.63;;;18.10;58.50;;;;;;5043637;28;20025;-66
2021/12/14 13:32:53;;;;;;;4.53;1.77;;;18.10;58.50;;;;;;5043544;28;20274;-66
2021/12/14 13:35:22;;;;;;;4.60;2.10;;;18.10;58.40;;;;;;5044607;28;20036;-63